Terminal Aerodrome Forecast
Issued by NWS Sterling, VA

Current Version | Previous Version | Graphics & Text | Print | Product List | Glossary On
Versions: 1 2 3 4 5 6 7 8 9 10 11 12 13 14 15 16 17 18 19 20
000
FTUS41 KLWX 242300
TAFMRB
TAF
KMRB 242340Z 2500/2524 VRB04KT 1/4SM FG OVC002 WS020/21050KT
     FM250300 21012KT 4SM -SHRA BKN012 OVC030 WS020/21045KT
     FM250600 27012G20KT P6SM OVC070
     FM251500 28017G28KT P6SM SCT030
     FM252100 28011KT P6SM FEW250=

USA.gov is the U.S. government's official web portal to all federal, state and local government web resources and services.